Flight Track Log - Related Links

Times and Time Zones

All times are in EDT time to prevent confusion due to time zone crossing. See the EJA396 flight status page for this flight to view local times or setup timezone preferences in your user account.

Time Position Orientation Groundspeed Altitude Reporting Facility
EDT Latitude Longitude Course Direction KTS MPH feet Rate Location/Type
Mon 07:06:20 PM 37.3333 -121.8833 141° Southeast 216 249 3,700  Level Northern Cal TRACON
Mon 07:07:20 PM 37.2833 -121.8333 141° Southeast 272 313 7,600 3,960 Climbing Northern Cal TRACON
Mon 07:08:00 PM 37.2569 -121.7761 120° Southeast 266 306 10,300 3,564 Climbing Oakland Center
Mon 07:09:01 PM 37.1931 -121.7003 137° Southeast 309 356 13,600 3,148 Climbing Oakland Center
Mon 07:10:02 PM 37.1233 -121.6197 137° Southeast 336 387 16,700 2,488 Climbing Oakland Center
Mon 07:11:00 PM 37.0003 -121.5328 141° Southeast  Level Estimated
Mon 07:11:04 PM 37.0494 -121.5372 138° Southeast 350 403 18,700  Level Oakland Center
Mon 07:12:05 PM 36.9725 -121.4478 137° Southeast 375 432 20,500 1,967 Climbing Oakland Center
Mon 07:13:06 PM 36.8481 -121.3733 154° Southeast 417 480 22,700 1,869 Climbing Oakland Center
Mon 07:14:07 PM 36.7514 -121.3206 156° South 438 504 24,300 1,820 Climbing Oakland Center
Mon 07:15:08 PM 36.6133 -121.2406 155° Southeast 453 521 26,400 1,317 Climbing Oakland Center
Mon 07:16:10 PM 36.5008 -121.1611 150° Southeast 465 535 27,000 293 Climbing Oakland Center
Mon 07:17:11 PM 36.3992 -121.0542 140° Southeast 476 548 27,000  Level Oakland Center
Mon 07:18:12 PM 36.2925 -120.9575 144° Southeast 478 550 27,000  Level Oakland Center
Mon 07:19:13 PM 36.1861 -120.8558 142° Southeast 482 555 27,000  Level Oakland Center
Mon 07:20:14 PM 36.0794 -120.7583 144° Southeast 477 549 27,000  Level Oakland Center
Mon 07:21:15 PM 35.9744 -120.6628 144° Southeast 470 541 27,000  Level Oakland Center
Mon 07:22:17 PM 35.8694 -120.5667 143° Southeast 471 542 27,000  Level Oakland Center
Mon 07:23:18 PM 35.7628 -120.4686 143° Southeast 476 548 27,000  Level Oakland Center
Mon 07:24:19 PM 35.6558 -120.3714 144° Southeast 477 549 27,000  Level Oakland Center
Mon 07:25:03 PM 35.5681 -120.2953 145° Southeast 478 550 27,000  Level Los Angeles Center
Mon 07:26:04 PM 35.4619 -120.1967 143° Southeast 478 550 27,000  Level Los Angeles Center
Mon 07:27:06 PM 35.3492 -120.0944 144° Southeast 481 554 27,000  Level Los Angeles Center
Mon 07:28:20 PM 35.2397 -119.9967 144° Southeast 482 555 27,000  Level Los Angeles Center
Mon 07:29:22 PM 35.1108 -119.8797 143° Southeast 479 551 27,000 -195 Level Los Angeles Center
Mon 07:30:23 PM 35.0367 -119.7878 135° Southeast 476 548 26,600 -1,597 Descending Los Angeles Center
Mon 07:31:26 PM 34.9317 -119.6469 132° Southeast 467 537 23,700 -2,758 Descending Los Angeles Center
Mon 07:32:27 PM 34.8289 -119.5083 132° Southeast 458 527 20,900 -2,537 Descending Los Angeles Center
Mon 07:33:29 PM 34.7469 -119.3972 132° Southeast 446 513 18,500 -2,323 Descending Los Angeles Center
Mon 07:34:31 PM 34.6706 -119.2947 132° Southeast 413 475 16,100 -2,439 Descending Los Angeles Center
Mon 07:35:32 PM 34.5908 -119.1928 134° Southeast 391 450 13,500 -2,390 Descending Los Angeles Center
Mon 07:36:34 PM 34.5203 -119.0992 132° Southeast 378 435 11,200 -1,210 Descending Los Angeles Center
Mon 07:37:36 PM 34.4611 -119.0219 133° Southeast 310 357 11,000 -629 Descending Los Angeles Center
Mon 07:38:38 PM 34.4031 -118.9433 132° Southeast 313 360 9,900 -1,306 Descending Los Angeles Center
Mon 07:39:40 PM 34.3492 -118.8653 130° Southeast 303 349 8,300 -1,415 Descending Los Angeles Center
Mon 07:40:41 PM 34.3197 -118.7739 111° Southeast 290 334 7,000 -634 Descending Los Angeles Center
Mon 07:41:43 PM 34.2831 -118.6653 112° Southeast 289 333 7,000  Level Los Angeles Center
Mon 07:42:45 PM 34.2525 -118.5744 112° Southeast 292 336 7,000  Level Los Angeles Center
Mon 07:43:47 PM 34.2217 -118.4842 112° Southeast 292 336 7,000 -387 Level Los Angeles Center
Mon 07:44:49 PM 34.1936 -118.3944 111° Southeast 288 331 6,200 -871 Descending Los Angeles Center
Mon 07:45:51 PM 34.1653 -118.3206 115° Southeast 260 299 5,200 -1,366 Descending Los Angeles Center
Mon 07:46:52 PM 34.1086 -118.3322 190° South 237 273 3,400 -1,268 Descending Los Angeles Center
Mon 07:47:54 PM 34.0689 -118.3819 226° Southwest 211 243 2,600 -1,210 Descending Los Angeles Center
Mon 07:48:56 PM 34.0381 -118.4261 230° Southwest 165 190 900 -1,161 Descending Los Angeles Center
Mon 07:49:58 PM 34.0181 -118.4483 223° Southwest 125 144 200 -677 Descending Los Angeles Center
Mon 07:51:00 PM 34.0158 -118.4513 180° South  Level Estimated
Mon 07:58:00 PM 34.0158 -118.4513 180° South  Level Estimated

Login

Don't have an account? Register now (free) for customized features, flight alerts, and more!